Latest Coastal Weather Observations for Creal Reef

IDQ60701

Issued at 5:12 pm EST Saturday 13 February 2016 (issued every 10 minutes, with the page automatically refreshed every 10 minutes)

About coastal observations | Map of coastal stations | Coastal observations for QLD | Marine services | Other Formats
Station Details ID: 200736 Name: CREAL REEF Lat: -20.53 Lon: 150.38 Height: 1.7 m
Data from the previous 72 hours. | See also: Recent months for locations in Queensland
Date/Time
EST
Temp

°C
Wind Pressure Rain
since 9am
mm
Weather Cloud Vis
km
Sea
Height
m
Swell
Dir
 
Speed
knots
Gust
knots
hPa Trend Height
m
Period
s
Dir
13/05:00pm 27.4 S 21 24 1004.8 - - - - - - - - -
13/04:30pm 27.2 S 20 24 1004.7 - - - - - - - - -
13/04:20pm 27.3 S 21 - 1004.7 - - - - - - - - -
13/04:00pm 27.1 S 22 25 1004.6 - - - - - - - - -
13/03:30pm 27.3 S 22 26 1004.8 - - - - - - - - -
13/03:20pm 27.0 S 22 - 1004.8 - - - - - - - - -
13/03:00pm 27.0 S 23 27 1004.8 - - - - - - - - -
13/02:30pm 27.0 S 22 26 1005.2 - - - - - - - - -
13/02:20pm 27.0 S 23 - 1005.4 - - - - - - - - -
13/02:00pm 27.0 S 23 26 1005.5 - - - - - - - - -
13/01:30pm 27.1 S 22 27 1005.7 - - - - - - - - -
13/01:20pm 27.2 S 22 - 1005.7 - - - - - - - - -
13/01:00pm 27.2 S 22 26 1006.0 - - - - - - - - -
13/12:30pm 27.5 S 22 25 1006.2 - - - - - - - - -
13/12:20pm 27.2 S 23 - 1006.3 - - - - - - - - -
13/12:00pm 27.2 S 22 25 1006.4 - - - - - - - - -
13/11:30am 27.1 S 22 25 1006.7 - - - - - - - - -
13/11:20am 27.2 S 21 - 1006.8 - - - - - - - - -
13/11:00am 27.2 S 21 25 1006.9 - - - - - - - - -
13/10:30am 27.2 S 22 26 1007.1 - - - - - - - - -
13/10:20am 27.4 S 22 - 1007.1 - - - - - - - - -
13/10:00am 27.3 S 22 26 1007.1 - - - - - - - - -
13/09:30am 27.4 S 21 25 1007.2 - - - - - - - - -
13/09:20am 27.3 S 23 - 1007.2 - - - - - - - - -
13/09:00am 27.4 S 22 26 1007.3 - - - - - - - - -
13/08:30am 27.2 S 23 28 1007.1 - - - - - - - - -
13/08:20am 27.3 S 21 - 1007.0 - - - - - - - - -
13/08:00am 27.4 S 23 27 1007.0 - - - - - - - - -
13/07:30am 27.4 S 24 27 1006.9 - - - - - - - - -
13/07:20am 27.4 S 23 - 1006.7 - - - - - - - - -
13/07:00am 27.4 S 24 27 1006.5 - - - - - - - - -
13/06:30am 27.4 S 23 27 1006.1 - - - - - - - - -
13/06:20am 27.3 S 24 - 1006.1 - - - - - - - - -
13/06:00am 27.3 S 24 28 1005.9 - - - - - - - - -
13/05:30am 27.3 S 22 25 1005.7 - - - - - - - - -
13/05:20am 27.2 S 23 - 1005.5 - - - - - - - - -
13/05:00am 27.2 S 23 26 1005.3 - - - - - - - - -
13/04:30am 27.4 S 23 27 1005.3 - - - - - - - - -
13/04:20am 27.2 S 23 - 1005.2 - - - - - - - - -
13/04:00am 27.4 SSE 22 27 1005.1 - - - - - - - - -
13/03:30am 27.3 S 23 27 1005.1 - - - - - - - - -
13/03:20am 27.3 SSE 23 - 1005.0 - - - - - - - - -
13/03:00am 27.4 SSE 24 26 1005.1 - - - - - - - - -
13/02:30am 27.2 S 23 26 1005.1 - - - - - - - - -
13/02:20am 27.4 S 23 - 1005.4 - - - - - - - - -
13/02:00am 27.4 S 20 22 1005.6 - - - - - - - - -
13/01:30am 27.5 SSE 20 25 1006.1 - - - - - - - - -
13/01:20am 27.4 SSE 19 - 1006.2 - - - - - - - - -
13/01:00am 27.2 SSE 20 25 1006.4 - - - - - - - - -
13/12:30am 27.3 SSE 16 23 1006.7 - - - - - - - - -
13/12:20am 26.8 SSE 14 - 1007.0 - - - - - - - - -
13/12:00am 26.8 SSE 16 21 1007.4 - - - - - - - - -
 
Date/Time
EST
Temp

°C
Wind Pressure Rain
since 9am
mm
Weather Cloud Vis
km
Sea
Height
m
Swell
Dir
 
Speed
knots
Gust
knots
hPa Trend Height
m
Period
s
Dir
12/11:30pm 26.6 SE 17 22 1007.7 - - - - - - - - -
12/11:20pm 26.6 SSE 16 - 1007.7 - - - - - - - - -
12/11:00pm 26.4 SE 17 20 1008.0 - - - - - - - - -
12/10:30pm 26.2 SE 17 20 1008.3 - - - - - - - - -
12/10:20pm 26.2 SE 18 - 1008.3 - - - - - - - - -
12/10:00pm 26.0 ESE 21 24 1008.4 - - - - - - - - -
12/09:30pm 27.0 SE 27 32 1008.1 - - - - - - - - -
12/09:20pm 27.4 SE 27 - 1008.0 - - - - - - - - -
12/09:00pm 27.3 SSE 20 28 1008.1 - - - - - - - - -
12/08:30pm 27.3 SSE 22 27 1007.8 - - - - - - - - -
12/08:20pm 27.0 SSE 22 - 1007.8 - - - - - - - - -
12/08:00pm 27.0 SSE 22 27 1007.7 - - - - - - - - -
12/07:30pm 26.7 SSE 23 28 1007.5 - - - - - - - - -
12/07:20pm 26.6 SSE 22 - 1007.4 - - - - - - - - -
12/07:00pm 26.6 SSE 24 30 1007.2 - - - - - - - - -
12/06:30pm 26.5 SSE 25 31 1006.8 - - - - - - - - -
12/06:20pm 26.5 SSE 25 - 1006.8 - - - - - - - - -
12/06:00pm 26.2 SSE 25 31 1006.6 - - - - - - - - -
12/05:30pm 27.3 SSE 25 30 1006.3 - - - - - - - - -
12/05:20pm 27.2 S 27 - 1006.2 - - - - - - - - -
12/05:00pm 27.2 S 25 28 1006.1 - - - - - - - - -
12/04:30pm 26.8 S 25 29 1005.9 - - - - - - - - -
12/04:20pm 26.8 S 26 - 1005.9 - - - - - - - - -
12/04:00pm 26.6 S 26 30 1006.0 - - - - - - - - -
12/03:30pm 27.0 S 25 29 1005.8 - - - - - - - - -
12/03:20pm 27.2 SSE 24 - 1005.9 - - - - - - - - -
12/03:00pm 27.2 SSE 23 27 1005.9 - - - - - - - - -
12/02:30pm 27.3 S 28 33 1005.9 - - - - - - - - -
12/02:20pm 27.6 S 27 - 1006.0 - - - - - - - - -
12/02:00pm 27.6 S 26 31 1006.1 - - - - - - - - -
12/01:30pm 27.5 SSE 26 28 1006.2 - - - - - - - - -
12/01:20pm 27.6 S 25 - 1006.3 - - - - - - - - -
12/01:00pm 27.1 SSE 22 26 1006.6 - - - - - - - - -
12/12:30pm 26.9 SSE 22 27 1006.8 - - - - - - - - -
12/12:20pm 26.8 SSE 22 - 1006.9 - - - - - - - - -
12/12:00pm 26.9 SSE 21 27 1007.4 - - - - - - - - -
12/11:30am 27.5 SSE 17 24 1007.7 - - - - - - - - -
12/11:20am 27.6 S 21 - 1007.7 - - - - - - - - -
12/11:00am 27.6 S 21 25 1007.8 - - - - - - - - -
12/10:30am 27.4 S 21 24 1008.1 - - - - - - - - -
12/10:20am 27.4 S 19 - 1008.2 - - - - - - - - -
12/10:00am 26.2 S 21 25 1008.3 - - - - - - - - -
12/09:30am 26.5 S 20 24 1008.3 - - - - - - - - -
12/09:20am 27.4 SSE 19 - 1008.4 - - - - - - - - -
12/09:00am 27.3 S 22 26 1008.4 - - - - - - - - -
12/08:30am 27.3 SSE 23 27 1008.3 - - - - - - - - -
12/08:20am 27.2 S 20 - 1008.1 - - - - - - - - -
12/08:15am 27.2 S 17 23 1008.2 - - - - - - - - -
12/08:00am 25.8 SE 22 28 1008.4 - - - - - - - - -
12/07:55am 25.2 SE 24 29 1008.4 - - - - - - - - -
12/07:30am 27.7 SSE 19 23 1008.2 - - - - - - - - -
12/07:20am 27.6 SSE 20 - 1008.1 - - - - - - - - -
12/07:00am 27.6 SSE 19 23 1008.0 - - - - - - - - -
12/06:30am 27.6 SSE 21 26 1007.7 - - - - - - - - -
12/06:20am 27.5 SSE 21 - 1007.6 - - - - - - - - -
12/06:00am 27.5 SSE 20 25 1007.2 - - - - - - - - -
12/05:30am 27.4 SSE 22 26 1006.8 - - - - - - - - -
12/05:20am 27.0 SSE 21 - 1006.9 - - - - - - - - -
12/05:00am 26.6 S 22 29 1006.9 - - - - - - - - -
12/04:30am 27.6 SSE 18 22 1006.6 - - - - - - - - -
12/04:20am 27.5 SSE 17 - 1006.6 - - - - - - - - -
12/04:00am 27.5 SSE 19 23 1006.6 - - - - - - - - -
12/03:30am 26.2 SSE 19 24 1006.7 - - - - - - - - -
12/03:20am 26.9 SSE 18 - 1006.6 - - - - - - - - -
12/03:00am 27.1 SE 17 20 1006.5 - - - - - - - - -
12/02:30am 27.4 SSE 17 22 1006.5 - - - - - - - - -
12/02:20am 27.4 SSE 20 - 1006.7 - - - - - - - - -
12/02:00am 27.6 SSE 18 23 1006.7 - - - - - - - - -
12/01:30am 27.5 SSE 19 23 1006.9 - - - - - - - - -
12/01:20am 27.5 SSE 16 - 1007.0 - - - - - - - - -
12/01:00am 27.5 SSE 16 19 1007.4 - - - - - - - - -
12/12:30am 27.6 SSE 17 22 1007.8 - - - - - - - - -
12/12:20am 27.6 SSE 17 - 1007.8 - - - - - - - - -
12/12:00am 27.5 SSE 17 22 1008.0 - - - - - - - - -
 
Date/Time
EST
Temp

°C
Wind Pressure Rain
since 9am
mm
Weather Cloud Vis
km
Sea
Height
m
Swell
Dir
 
Speed
knots
Gust
knots
hPa Trend Height
m
Period
s
Dir
11/11:30pm 27.5 SSE 18 22 1008.4 - - - - - - - - -
11/11:20pm 27.5 SE 19 - 1008.4 - - - - - - - - -
11/11:00pm 27.6 SSE 19 23 1008.6 - - - - - - - - -
11/10:30pm 27.7 SSE 20 24 1008.6 - - - - - - - - -
11/10:20pm 27.6 SSE 19 - 1008.5 - - - - - - - - -
11/10:00pm 27.5 SE 20 23 1008.3 - - - - - - - - -
11/09:30pm 27.3 SE 22 26 1008.1 - - - - - - - - -
11/09:20pm 27.6 SE 22 - 1008.1 - - - - - - - - -
11/09:00pm 27.6 SSE 20 24 1008.1 - - - - - - - - -
11/08:30pm 27.5 SSE 19 23 1008.2 - - - - - - - - -
11/08:20pm 27.5 SSE 19 - 1008.2 - - - - - - - - -
11/08:00pm 27.4 SSE 19 25 1008.0 - - - - - - - - -
11/07:30pm 27.5 SSE 19 25 1007.9 - - - - - - - - -
11/07:20pm 27.4 SSE 19 - 1007.9 - - - - - - - - -
11/07:00pm 27.4 SSE 21 25 1007.5 - - - - - - - - -
11/06:30pm 27.5 SSE 20 24 1007.0 - - - - - - - - -
11/06:20pm 27.3 SSE 19 - 1006.9 - - - - - - - - -
11/06:00pm 27.4 SSE 22 25 1006.9 - - - - - - - - -
11/05:30pm 27.4 SSE 23 26 1006.8 - - - - - - - - -
11/05:20pm 27.6 SSE 21 - 1006.8 - - - - - - - - -
11/05:00pm 27.8 SSE 20 24 1006.7 - - - - - - - - -
11/04:30pm 27.5 SSE 20 23 1006.6 - - - - - - - - -
11/04:20pm 27.7 SSE 19 - 1006.4 - - - - - - - - -
11/04:00pm 27.7 SSE 19 23 1006.4 - - - - - - - - -
11/03:30pm 27.8 SSE 19 22 1006.4 - - - - - - - - -
11/03:20pm 27.8 SSE 21 - 1006.4 - - - - - - - - -
11/03:00pm 27.7 SSE 17 22 1006.4 - - - - - - - - -
11/02:30pm 27.7 SSE 19 23 1006.5 - - - - - - - - -
11/02:20pm 27.8 SSE 17 - 1006.6 - - - - - - - - -
11/02:00pm 27.9 SSE 17 22 1006.9 - - - - - - - - -
11/01:30pm 27.8 SSE 18 22 1007.3 - - - - - - - - -
11/01:20pm 27.8 SSE 20 - 1007.3 - - - - - - - - -
11/01:00pm 27.7 SSE 18 21 1007.4 - - - - - - - - -
11/12:30pm 27.9 SSE 17 21 1007.6 - - - - - - - - -
11/12:20pm 27.8 SSE 17 - 1007.6 - - - - - - - - -
11/12:00pm 27.9 SSE 17 22 1007.8 - - - - - - - - -
11/11:30am 27.5 SSE 17 21 1008.1 - - - - - - - - -
11/11:20am 27.6 SSE 15 - 1008.3 - - - - - - - - -
11/11:00am 27.5 SSE 13 19 1008.3 - - - - - - - - -
11/10:30am 27.6 SSE 14 18 1008.6 - - - - - - - - -
11/10:20am 27.5 SSE 18 - 1008.5 - - - - - - - - -
11/10:00am 27.3 SSE 20 26 1008.6 - - - - - - - - -
11/09:41am 27.5 SSE 20 23 1008.6 - - - - - - - - -
11/09:30am 27.0 S 17 23 1008.6 - - - - - - - - -
11/09:20am 27.6 SSE 16 - 1008.5 - - - - - - - - -
11/09:00am 27.9 SSE 16 19 1008.6 - - - - - - - - -
11/08:30am 27.6 SSE 19 23 1008.3 - - - - - - - - -
11/08:20am 27.6 SSE 18 - 1008.2 - - - - - - - - -
11/08:00am 27.5 SSE 19 23 1008.1 - - - - - - - - -
11/07:30am 27.5 SE 19 23 1007.8 - - - - - - - - -
11/07:20am 27.4 SSE 19 - 1007.7 - - - - - - - - -
11/07:00am 27.3 SSE 19 22 1007.6 - - - - - - - - -
11/06:30am 27.3 SE 19 22 1007.4 - - - - - - - - -
11/06:20am 27.3 SE 19 - 1007.3 - - - - - - - - -
11/06:00am 27.2 SE 19 21 1007.2 - - - - - - - - -
11/05:30am 27.2 SE 19 22 1006.9 - - - - - - - - -
11/05:20am 27.2 SE 20 - 1006.7 - - - - - - - - -
11/05:00am 27.2 SE 19 23 1006.7 - - - - - - - - -
11/04:30am 27.2 SE 21 24 1006.3 - - - - - - - - -
11/04:20am 27.4 SE 21 - 1006.3 - - - - - - - - -
11/04:00am 27.3 SE 20 24 1006.2 - - - - - - - - -
11/03:30am 27.2 SE 21 24 1006.3 - - - - - - - - -
11/03:20am 27.2 SE 20 - 1006.2 - - - - - - - - -
11/03:00am 27.4 SE 21 27 1006.4 - - - - - - - - -
11/02:30am 27.4 SE 22 26 1006.5 - - - - - - - - -
11/02:20am 27.4 SE 22 - 1006.6 - - - - - - - - -
11/02:00am 27.4 SE 22 26 1006.8 - - - - - - - - -
11/01:30am 27.4 SE 23 27 1007.0 - - - - - - - - -
11/01:20am 27.4 SE 23 - 1007.0 - - - - - - - - -
11/01:00am 27.5 SE 23 27 1007.0 - - - - - - - - -
11/12:30am 27.4 SE 23 26 1007.3 - - - - - - - - -
11/12:20am 27.4 SE 22 - 1007.3 - - - - - - - - -
11/12:00am 27.6 SE 21 26 1007.6 - - - - - - - - -
 
Date/Time
EST
Temp

°C
Wind Pressure Rain
since 9am
mm
Weather Cloud Vis
km
Sea
Height
m
Swell
Dir
 
Speed
knots
Gust
knots
hPa Trend Height
m
Period
s
Dir
10/11:30pm 27.6 SE 23 27 1007.9 - - - - - - - - -
10/11:20pm 27.5 SE 23 - 1008.1 - - - - - - - - -
10/11:00pm 27.6 SE 23 27 1008.4 - - - - - - - - -
10/10:30pm 26.6 ESE 19 25 1008.5 - - - - - - - - -
10/10:20pm 26.8 ESE 21 - 1008.7 - - - - - - - - -
10/10:00pm 27.4 SE 23 27 1008.8 - - - - - - - - -
10/09:30pm 27.6 SE 21 25 1008.5 - - - - - - - - -
10/09:20pm 27.7 SE 19 - 1008.5 - - - - - - - - -
10/09:00pm 27.7 SE 21 25 1008.5 - - - - - - - - -
10/08:30pm 27.5 SSE 20 27 1008.5 - - - - - - - - -
10/08:20pm 27.7 SSE 22 - 1008.4 - - - - - - - - -
10/08:00pm 27.8 SSE 20 25 1008.3 - - - - - - - - -
10/07:30pm 27.6 SSE 21 26 1008.0 - - - - - - - - -
10/07:20pm 27.8 SSE 21 - 1007.8 - - - - - - - - -
10/07:00pm 27.7 SSE 19 27 1007.8 - - - - - - - - -
10/06:30pm 27.7 SE 22 25 1007.4 - - - - - - - - -
10/06:20pm 27.6 SE 22 - 1007.4 - - - - - - - - -
10/06:00pm 27.9 SSE 20 25 1007.1 - - - - - - - - -
10/05:30pm 27.8 SSE 20 25 1006.8 - - - - - - - - -
10/05:20pm 27.9 SSE 20 - 1006.7 - - - - - - - - -

Other Formats:

Comma delimited format used in spreadsheet applications
http://www.bom.gov.au/fwo/IDQ60701/IDQ60701.94371.axf

JavaScript Object Notation format (JSON) in row-major order
http://www.bom.gov.au/fwo/IDQ60701/IDQ60701.94371.json